Terminal Aerodrome Forecast
Issued by NWS

Home | Current Version | Previous Version | Graphics & Text | Print | Product List | Glossary On
Versions: 1 2 3 4 5 6 7 8 9 10 11 12 13 14 15 16 17 18 19 20 21 22
000
FTUS43 KICT 212051 AAA
TAFCNU
TAF AMD
KCNU 212051Z 2121/2218 04007KT P6SM SCT040
     FM220000 08003KT P6SM FEW040 SCT250
     FM221500 13007KT P6SM SCT040 BKN100=

USA.gov is the U.S. government's official web portal to all federal, state and local government web resources and services.